TimeEST,TemperatureF,Dew PointF,Humidity,Sea Level PressureIn,VisibilityMPH,Wind Direction,Wind SpeedMPH,Gust SpeedMPH,PrecipitationIn,Events,Conditions,WindDirDegrees,DateUTC
12:15 AM,60.8,55.4,82,30.22,10.0,SSW,6.9,-,N/A,,Overcast,200,2012-11-13 05:15:00
12:35 AM,60.8,55.4,82,30.22,10.0,SSW,8.1,-,N/A,,Overcast,210,2012-11-13 05:35:00
12:55 AM,60.8,55.4,82,30.21,10.0,South,10.4,17.3,N/A,,Overcast,180,2012-11-13 05:55:00
1:15 AM,60.8,55.4,82,30.19,10.0,SSW,12.7,16.1,N/A,,Overcast,200,2012-11-13 06:15:00
1:35 AM,60.8,55.4,82,30.19,10.0,SSW,11.5,17.3,N/A,,Overcast,200,2012-11-13 06:35:00
1:55 AM,60.8,57.2,88,30.19,10.0,SSW,11.5,19.6,N/A,,Overcast,200,2012-11-13 06:55:00
2:15 AM,60.8,57.2,88,30.19,10.0,SSW,9.2,18.4,N/A,,Overcast,210,2012-11-13 07:15:00
2:35 AM,60.8,57.2,88,30.17,10.0,SSW,11.5,19.6,N/A,,Overcast,210,2012-11-13 07:35:00
2:55 AM,60.8,57.2,88,30.16,10.0,SSW,11.5,24.2,N/A,,Overcast,200,2012-11-13 07:55:00
3:15 AM,60.8,57.2,88,30.15,10.0,SSW,17.3,23.0,N/A,,Overcast,200,2012-11-13 08:15:00
3:35 AM,60.8,57.2,88,30.15,10.0,SSW,13.8,21.9,N/A,,Overcast,200,2012-11-13 08:35:00
3:55 AM,60.8,57.2,88,30.15,10.0,SSW,15.0,24.2,N/A,,Overcast,200,2012-11-13 08:55:00
4:15 AM,60.8,57.2,88,30.15,10.0,SSW,15.0,19.6,N/A,,Overcast,200,2012-11-13 09:15:00
4:35 AM,60.8,57.2,88,30.16,10.0,SW,8.1,17.3,N/A,,Overcast,220,2012-11-13 09:35:00
4:55 AM,57.2,53.6,88,30.17,8.0,West,11.5,18.4,N/A,,Overcast,270,2012-11-13 09:55:00
5:15 AM,55.4,51.8,88,30.18,9.0,West,9.2,-,0.02,,Overcast,280,2012-11-13 10:15:00
5:35 AM,53.6,50.0,88,30.19,10.0,WNW,6.9,-,0.03,,Overcast,290,2012-11-13 10:35:00
5:45 AM,53.6,48.2,82,30.19,8.0,NW,9.2,-,N/A,,Overcast,310,2012-11-13 10:45:00
5:55 AM,51.8,48.2,88,30.19,10.0,NW,8.1,-,0.03,,Overcast,320,2012-11-13 10:55:00
7:45 AM,46.4,41.0,81,30.27,8.0,North,16.1,20.7,N/A,,Overcast,360,2012-11-13 12:45:00
8:45 AM,44.6,41.0,87,30.29,4.0,North,11.5,18.4,N/A,Rain,Light Rain,360,2012-11-13 13:45:00
9:45 AM,44.6,39.2,81,30.29,10.0,NNE,9.2,-,N/A,,Overcast,20,2012-11-13 14:45:00
10:45 AM,44.6,39.2,81,30.28,10.0,North,10.4,-,N/A,,Overcast,10,2012-11-13 15:45:00
11:10 AM,42.8,37.4,81,30.28,10.0,North,15.0,-,N/A,,Overcast,10,2012-11-13 16:10:00
12:45 PM,41.0,35.6,81,30.29,6.0,North,13.8,20.7,N/A,Rain,Light Rain,360,2012-11-13 17:45:00
1:45 PM,41.0,35.6,81,30.30,10.0,North,13.8,-,N/A,,Overcast,360,2012-11-13 18:45:00
2:45 PM,41.0,33.8,76,30.30,10.0,North,13.8,19.6,N/A,,Mostly Cloudy,350,2012-11-13 19:45:00
3:45 PM,42.8,30.2,61,30.32,10.0,NNW,16.1,19.6,N/A,,Scattered Clouds,340,2012-11-13 20:45:00
4:45 PM,41.0,28.4,61,30.34,10.0,North,11.5,-,N/A,,Partly Cloudy,360,2012-11-13 21:45:00
5:45 PM,39.2,26.6,61,30.36,10.0,North,8.1,-,N/A,,Clear,360,2012-11-13 22:45:00
6:55 PM,37.4,26.6,65,30.38,10.0,NNW,4.6,-,N/A,,Clear,340,2012-11-13 23:55:00
7:50 PM,35.6,26.6,70,30.40,10.0,North,6.9,-,N/A,,Clear,350,2012-11-14 00:50:00
8:45 PM,37.4,26.6,65,30.43,10.0,North,8.1,-,N/A,,Overcast,360,2012-11-14 01:45:00
8:55 PM,37.4,26.6,65,30.43,10.0,NNW,8.1,-,N/A,,Overcast,340,2012-11-14 01:55:00
9:15 PM,37.4,28.4,70,30.43,10.0,North,6.9,-,N/A,,Overcast,350,2012-11-14 02:15:00
9:35 PM,37.4,28.4,70,30.43,10.0,NNW,8.1,-,N/A,,Overcast,340,2012-11-14 02:35:00
9:56 PM,37.4,28.4,70,30.43,10.0,NNW,8.1,-,N/A,,Overcast,340,2012-11-14 02:56:00
10:15 PM,37.4,28.4,70,30.43,10.0,North,11.5,-,N/A,,Overcast,350,2012-11-14 03:15:00
10:35 PM,37.4,26.6,65,30.44,10.0,North,12.7,16.1,N/A,,Overcast,350,2012-11-14 03:35:00
10:55 PM,37.4,24.8,60,30.44,10.0,North,10.4,-,N/A,,Overcast,350,2012-11-14 03:55:00
11:15 PM,37.4,24.8,60,30.44,10.0,North,10.4,-,N/A,,Mostly Cloudy,350,2012-11-14 04:15:00
11:35 PM,35.6,24.8,65,30.44,10.0,North,9.2,-,N/A,,Scattered Clouds,350,2012-11-14 04:35:00
11:55 PM,35.6,24.8,65,30.44,10.0,North,6.9,-,N/A,,Scattered Clouds,350,2012-11-14 04:55:00